Terminal Aerodrome Forecast
Issued by NWS Jacksonville, FL

Home | Current Version | Previous Version | Text Only | Print | Product List | Glossary On
Versions: 1 2 3 4 5 6 7 8 9 10 11 12 13 14 15 16 17 18 19 20 21
000
FTUS42 KJAX 311100 AAA
TAFJAX
TAF AMD
KJAX 311148Z 3112/0112 00000KT 1SM BR SCT002 SCT250
     FM311230 00000KT 4SM BR SCT015 SCT250
     FM311300 15005KT P6SM SCT025 SCT250
     FM311900 12009KT P6SM VCSH SCT030 BKN070
     FM010100 14005KT P6SM FEW030 SCT070 SCT250=

USA.gov is the U.S. government's official web portal to all federal, state and local government web resources and services.